sensor_id;sensor_type;location;lat;lon;timestamp;temperature;humidity
16477;DHT22;8349;50.928;6.376;2023-02-15T04:02:10;1.20;99.90
16477;DHT22;8349;50.928;6.376;2023-02-15T04:04:39;1.30;99.90
16477;DHT22;8349;50.928;6.376;2023-02-15T04:07:07;1.20;99.90
16477;DHT22;8349;50.928;6.376;2023-02-15T04:09:34;1.20;99.90
16477;DHT22;8349;50.928;6.376;2023-02-15T04:12:18;1.20;99.90
16477;DHT22;8349;50.928;6.376;2023-02-15T04:14:45;1.10;99.90
16477;DHT22;8349;50.928;6.376;2023-02-15T04:17:31;1.10;99.90
16477;DHT22;8349;50.928;6.376;2023-02-15T04:19:58;1.00;99.90
16477;DHT22;8349;50.928;6.376;2023-02-15T04:22:42;1.00;99.90
16477;DHT22;8349;50.928;6.376;2023-02-15T04:25:26;0.90;99.90
16477;DHT22;8349;50.928;6.376;2023-02-15T04:27:53;1.00;99.90
16477;DHT22;8349;50.928;6.376;2023-02-15T04:30:21;0.90;99.90
16477;DHT22;8349;50.928;6.376;2023-02-15T04:32:49;0.80;99.90
16477;DHT22;8349;50.928;6.376;2023-02-15T04:35:16;0.80;99.90
16477;DHT22;8349;50.928;6.376;2023-02-15T04:37:43;0.80;99.90
16477;DHT22;8349;50.928;6.376;2023-02-15T04:40:10;0.70;99.90
16477;DHT22;8349;50.928;6.376;2023-02-15T04:42:38;0.70;99.90
16477;DHT22;8349;50.928;6.376;2023-02-15T04:45:05;0.70;99.90
16477;DHT22;8349;50.928;6.376;2023-02-15T04:47:32;0.70;99.90
16477;DHT22;8349;50.928;6.376;2023-02-15T04:50:00;0.70;99.90
16477;DHT22;8349;50.928;6.376;2023-02-15T04:52:27;0.70;99.90
16477;DHT22;8349;50.928;6.376;2023-02-15T04:54:54;0.60;99.90
16477;DHT22;8349;50.928;6.376;2023-02-15T04:57:20;0.60;99.90
16477;DHT22;8349;50.928;6.376;2023-02-15T04:59:47;0.60;99.90
16477;DHT22;8349;50.928;6.376;2023-02-15T05:02:14;0.50;99.90
16477;DHT22;8349;50.928;6.376;2023-02-15T05:04:41;0.40;99.90
16477;DHT22;8349;50.928;6.376;2023-02-15T05:07:09;0.40;99.90
16477;DHT22;8349;50.928;6.376;2023-02-15T05:09:36;0.30;99.90
16477;DHT22;8349;50.928;6.376;2023-02-15T05:12:03;0.20;99.90
16477;DHT22;8349;50.928;6.376;2023-02-15T05:14:30;0.20;99.90
16477;DHT22;8349;50.928;6.376;2023-02-15T05:16:57;0.20;99.90
16477;DHT22;8349;50.928;6.376;2023-02-15T05:19:26;0.10;99.90
16477;DHT22;8349;50.928;6.376;2023-02-15T05:21:53;0.10;99.90
16477;DHT22;8349;50.928;6.376;2023-02-15T05:24:21;0.20;99.90
16477;DHT22;8349;50.928;6.376;2023-02-15T05:27:05;0.20;99.90
16477;DHT22;8349;50.928;6.376;2023-02-15T05:29:50;0.20;99.90
16477;DHT22;8349;50.928;6.376;2023-02-15T05:32:16;0.20;99.90
16477;DHT22;8349;50.928;6.376;2023-02-15T05:34:43;0.20;99.90
16477;DHT22;8349;50.928;6.376;2023-02-15T05:37:10;0.30;99.90
16477;DHT22;8349;50.928;6.376;2023-02-15T05:39:38;0.20;99.90
16477;DHT22;8349;50.928;6.376;2023-02-15T05:42:05;0.30;99.90
16477;DHT22;8349;50.928;6.376;2023-02-15T05:44:32;0.40;99.90
16477;DHT22;8349;50.928;6.376;2023-02-15T05:46:59;0.50;99.90
16477;DHT22;8349;50.928;6.376;2023-02-15T05:49:28;0.50;99.90
16477;DHT22;8349;50.928;6.376;2023-02-15T05:51:55;0.60;99.90
16477;DHT22;8349;50.928;6.376;2023-02-15T05:54:22;0.60;99.90
16477;DHT22;8349;50.928;6.376;2023-02-15T05:56:50;0.60;99.90
16477;DHT22;8349;50.928;6.376;2023-02-15T05:59:17;0.60;99.90
16477;DHT22;8349;50.928;6.376;2023-02-15T06:01:44;0.50;99.90
16477;DHT22;8349;50.928;6.376;2023-02-15T06:04:11;0.50;99.90
16477;DHT22;8349;50.928;6.376;2023-02-15T06:06:38;0.50;99.90
16477;DHT22;8349;50.928;6.376;2023-02-15T06:09:05;0.40;99.90
16477;DHT22;8349;50.928;6.376;2023-02-15T06:11:32;0.50;99.90
16477;DHT22;8349;50.928;6.376;2023-02-15T06:14:00;0.40;99.90
16477;DHT22;8349;50.928;6.376;2023-02-15T06:16:27;0.40;99.90
16477;DHT22;8349;50.928;6.376;2023-02-15T06:18:54;0.40;99.90
16477;DHT22;8349;50.928;6.376;2023-02-15T06:21:20;0.50;99.90
16477;DHT22;8349;50.928;6.376;2023-02-15T06:23:47;0.50;99.90
16477;DHT22;8349;50.928;6.376;2023-02-15T06:26:14;0.60;99.90
16477;DHT22;8349;50.928;6.376;2023-02-15T06:28:41;0.60;99.90
16477;DHT22;8349;50.928;6.376;2023-02-15T06:31:09;0.50;99.90
16477;DHT22;8349;50.928;6.376;2023-02-15T06:33:36;0.50;99.90
16477;DHT22;8349;50.928;6.376;2023-02-15T06:36:03;0.50;99.90
16477;DHT22;8349;50.928;6.376;2023-02-15T06:38:30;0.50;99.90
16477;DHT22;8349;50.928;6.376;2023-02-15T06:40:57;0.50;99.90
16477;DHT22;8349;50.928;6.376;2023-02-15T06:43:24;0.50;99.90
16477;DHT22;8349;50.928;6.376;2023-02-15T06:45:51;0.60;99.90
16477;DHT22;8349;50.928;6.376;2023-02-15T06:48:19;0.60;99.90
16477;DHT22;8349;50.928;6.376;2023-02-15T06:50:45;0.70;99.90
16477;DHT22;8349;50.928;6.376;2023-02-15T06:53:12;0.70;99.90
16477;DHT22;8349;50.928;6.376;2023-02-15T06:55:39;0.70;99.90
16477;DHT22;8349;50.928;6.376;2023-02-15T06:58:06;0.70;99.90
16477;DHT22;8349;50.928;6.376;2023-02-15T07:00:32;0.60;99.90
16477;DHT22;8349;50.928;6.376;2023-02-15T07:02:59;0.60;99.90
16477;DHT22;8349;50.928;6.376;2023-02-15T07:05:32;0.60;99.90
16477;DHT22;8349;50.928;6.376;2023-02-15T07:07:59;0.50;99.90
16477;DHT22;8349;50.928;6.376;2023-02-15T07:10:26;0.60;99.90
16477;DHT22;8349;50.928;6.376;2023-02-15T07:12:53;0.60;99.90
16477;DHT22;8349;50.928;6.376;2023-02-15T07:15:19;0.60;99.90
16477;DHT22;8349;50.928;6.376;2023-02-15T07:17:47;0.60;99.90
16477;DHT22;8349;50.928;6.376;2023-02-15T07:20:15;0.60;99.90
16477;DHT22;8349;50.928;6.376;2023-02-15T07:22:43;0.60;99.90
16477;DHT22;8349;50.928;6.376;2023-02-15T07:25:11;0.60;99.90
16477;DHT22;8349;50.928;6.376;2023-02-15T07:27:38;0.60;99.90
16477;DHT22;8349;50.928;6.376;2023-02-15T07:30:06;0.70;99.90
16477;DHT22;8349;50.928;6.376;2023-02-15T07:32:33;0.70;99.90
16477;DHT22;8349;50.928;6.376;2023-02-15T07:35:00;0.80;99.90
16477;DHT22;8349;50.928;6.376;2023-02-15T07:37:27;0.90;99.90
16477;DHT22;8349;50.928;6.376;2023-02-15T07:39:55;0.90;99.90
16477;DHT22;8349;50.928;6.376;2023-02-15T07:42:22;1.10;99.90
16477;DHT22;8349;50.928;6.376;2023-02-15T07:44:50;1.20;99.90
16477;DHT22;8349;50.928;6.376;2023-02-15T07:47:17;1.20;99.90
16477;DHT22;8349;50.928;6.376;2023-02-15T07:49:44;1.40;99.90
16477;DHT22;8349;50.928;6.376;2023-02-15T07:52:11;1.40;99.90
16477;DHT22;8349;50.928;6.376;2023-02-15T07:54:38;1.50;99.90
16477;DHT22;8349;50.928;6.376;2023-02-15T07:57:06;1.60;99.90
16477;DHT22;8349;50.928;6.376;2023-02-15T07:59:33;1.60;99.90
16477;DHT22;8349;50.928;6.376;2023-02-15T08:02:00;1.70;99.90
16477;DHT22;8349;50.928;6.376;2023-02-15T08:04:26;1.70;99.90
16477;DHT22;8349;50.928;6.376;2023-02-15T08:06:53;1.80;99.90
16477;DHT22;8349;50.928;6.376;2023-02-15T08:09:20;1.90;99.90
16477;DHT22;8349;50.928;6.376;2023-02-15T08:11:47;2.00;99.90
16477;DHT22;8349;50.928;6.376;2023-02-15T08:14:17;2.20;99.90
16477;DHT22;8349;50.928;6.376;2023-02-15T08:16:44;2.30;99.90
16477;DHT22;8349;50.928;6.376;2023-02-15T08:19:12;2.50;99.90
16477;DHT22;8349;50.928;6.376;2023-02-15T08:21:40;2.60;99.90
16477;DHT22;8349;50.928;6.376;2023-02-15T08:24:07;2.80;99.90
16477;DHT22;8349;50.928;6.376;2023-02-15T08:26:34;2.90;99.90
16477;DHT22;8349;50.928;6.376;2023-02-15T08:29:01;3.10;99.90
16477;DHT22;8349;50.928;6.376;2023-02-15T08:31:30;3.20;99.90
16477;DHT22;8349;50.928;6.376;2023-02-15T08:33:57;3.40;99.90
16477;DHT22;8349;50.928;6.376;2023-02-15T08:36:25;3.50;99.90
16477;DHT22;8349;50.928;6.376;2023-02-15T08:38:53;3.60;99.90
16477;DHT22;8349;50.928;6.376;2023-02-15T08:41:22;3.70;99.90
16477;DHT22;8349;50.928;6.376;2023-02-15T08:43:50;3.80;99.90
16477;DHT22;8349;50.928;6.376;2023-02-15T08:46:19;4.00;99.90
16477;DHT22;8349;50.928;6.376;2023-02-15T08:48:48;4.10;99.90
16477;DHT22;8349;50.928;6.376;2023-02-15T08:51:15;4.20;99.90
16477;DHT22;8349;50.928;6.376;2023-02-15T08:53:43;4.30;99.90
16477;DHT22;8349;50.928;6.376;2023-02-15T08:56:10;4.40;99.90
16477;DHT22;8349;50.928;6.376;2023-02-15T08:58:37;4.40;99.90
16477;DHT22;8349;50.928;6.376;2023-02-15T09:01:08;4.50;99.90
16477;DHT22;8349;50.928;6.376;2023-02-15T09:03:35;4.60;99.90
16477;DHT22;8349;50.928;6.376;2023-02-15T09:06:03;4.60;99.90
16477;DHT22;8349;50.928;6.376;2023-02-15T09:08:30;4.60;99.90
16477;DHT22;8349;50.928;6.376;2023-02-15T09:11:04;4.70;99.90
16477;DHT22;8349;50.928;6.376;2023-02-15T09:13:31;4.80;99.90
16477;DHT22;8349;50.928;6.376;2023-02-15T09:16:00;4.90;99.90
16477;DHT22;8349;50.928;6.376;2023-02-15T09:18:29;4.90;99.90
16477;DHT22;8349;50.928;6.376;2023-02-15T09:20:56;4.90;99.90
16477;DHT22;8349;50.928;6.376;2023-02-15T09:23:24;5.00;99.90
16477;DHT22;8349;50.928;6.376;2023-02-15T09:25:51;5.00;99.90
16477;DHT22;8349;50.928;6.376;2023-02-15T09:28:18;5.10;99.90
16477;DHT22;8349;50.928;6.376;2023-02-15T09:30:45;5.20;99.90
16477;DHT22;8349;50.928;6.376;2023-02-15T09:33:12;5.20;99.90
16477;DHT22;8349;50.928;6.376;2023-02-15T09:35:39;5.30;99.90
16477;DHT22;8349;50.928;6.376;2023-02-15T09:38:06;5.40;99.90
16477;DHT22;8349;50.928;6.376;2023-02-15T09:40:36;5.50;99.90
16477;DHT22;8349;50.928;6.376;2023-02-15T09:43:09;5.70;99.90
16477;DHT22;8349;50.928;6.376;2023-02-15T09:48:36;6.00;99.90
16477;DHT22;8349;50.928;6.376;2023-02-15T09:53:53;6.20;99.90
16477;DHT22;8349;50.928;6.376;2023-02-15T09:56:25;6.40;99.90
16477;DHT22;8349;50.928;6.376;2023-02-15T09:58:53;6.60;99.90
16477;DHT22;8349;50.928;6.376;2023-02-15T10:01:25;6.80;99.90
16477;DHT22;8349;50.928;6.376;2023-02-15T10:04:01;6.90;99.90
16477;DHT22;8349;50.928;6.376;2023-02-15T10:06:32;7.00;99.90
16477;DHT22;8349;50.928;6.376;2023-02-15T10:11:56;7.30;99.90
16477;DHT22;8349;50.928;6.376;2023-02-15T10:14:37;7.50;99.90
16477;DHT22;8349;50.928;6.376;2023-02-15T10:17:08;7.70;99.90
16477;DHT22;8349;50.928;6.376;2023-02-15T10:19:39;8.00;99.90
16477;DHT22;8349;50.928;6.376;2023-02-15T10:22:14;8.20;99.90
16477;DHT22;8349;50.928;6.376;2023-02-15T10:24:55;8.50;99.90
16477;DHT22;8349;50.928;6.376;2023-02-15T10:27:28;8.70;99.90
16477;DHT22;8349;50.928;6.376;2023-02-15T10:30:00;8.80;99.90
16477;DHT22;8349;50.928;6.376;2023-02-15T10:32:30;8.90;99.90
16477;DHT22;8349;50.928;6.376;2023-02-15T10:35:00;9.00;99.90
16477;DHT22;8349;50.928;6.376;2023-02-15T10:37:37;9.20;99.90
16477;DHT22;8349;50.928;6.376;2023-02-15T10:40:11;9.40;99.90
16477;DHT22;8349;50.928;6.376;2023-02-15T10:42:46;9.40;99.90
16477;DHT22;8349;50.928;6.376;2023-02-15T10:45:18;9.60;99.90
16477;DHT22;8349;50.928;6.376;2023-02-15T10:47:54;10.10;99.90
16477;DHT22;8349;50.928;6.376;2023-02-15T10:50:29;11.50;99.90
16477;DHT22;8349;50.928;6.376;2023-02-15T10:53:04;15.30;99.90
16477;DHT22;8349;50.928;6.376;2023-02-15T10:55:36;17.70;99.90
16477;DHT22;8349;50.928;6.376;2023-02-15T10:58:10;20.00;99.90
16477;DHT22;8349;50.928;6.376;2023-02-15T11:00:43;20.80;99.90
16477;DHT22;8349;50.928;6.376;2023-02-15T11:03:16;21.30;99.90
16477;DHT22;8349;50.928;6.376;2023-02-15T11:05:47;22.70;99.90
16477;DHT22;8349;50.928;6.376;2023-02-15T11:08:20;22.30;99.90
16477;DHT22;8349;50.928;6.376;2023-02-15T11:10:49;23.90;99.90
16477;DHT22;8349;50.928;6.376;2023-02-15T11:13:20;24.30;99.90
16477;DHT22;8349;50.928;6.376;2023-02-15T11:15:49;25.40;99.90
16477;DHT22;8349;50.928;6.376;2023-02-15T11:18:19;25.90;99.90
16477;DHT22;8349;50.928;6.376;2023-02-15T11:20:50;25.80;99.90
16477;DHT22;8349;50.928;6.376;2023-02-15T11:23:19;26.70;99.90
16477;DHT22;8349;50.928;6.376;2023-02-15T11:25:47;28.10;99.90
16477;DHT22;8349;50.928;6.376;2023-02-15T11:28:29;27.70;99.90
16477;DHT22;8349;50.928;6.376;2023-02-15T11:30:57;26.90;99.90
16477;DHT22;8349;50.928;6.376;2023-02-15T11:33:26;27.80;99.90
16477;DHT22;8349;50.928;6.376;2023-02-15T11:35:56;26.20;99.90
16477;DHT22;8349;50.928;6.376;2023-02-15T11:38:26;26.50;99.90
16477;DHT22;8349;50.928;6.376;2023-02-15T11:40:56;26.40;99.90
16477;DHT22;8349;50.928;6.376;2023-02-15T11:43:27;25.70;99.90
16477;DHT22;8349;50.928;6.376;2023-02-15T11:45:56;25.40;99.90
16477;DHT22;8349;50.928;6.376;2023-02-15T11:48:22;26.60;99.90
16477;DHT22;8349;50.928;6.376;2023-02-15T11:50:49;26.70;99.90
16477;DHT22;8349;50.928;6.376;2023-02-15T11:53:17;27.00;99.90
16477;DHT22;8349;50.928;6.376;2023-02-15T11:55:47;26.50;99.90
16477;DHT22;8349;50.928;6.376;2023-02-15T11:58:16;27.20;99.90
16477;DHT22;8349;50.928;6.376;2023-02-15T12:00:50;29.10;99.90
16477;DHT22;8349;50.928;6.376;2023-02-15T12:03:21;30.40;99.90
16477;DHT22;8349;50.928;6.376;2023-02-15T12:05:50;29.20;99.90
16477;DHT22;8349;50.928;6.376;2023-02-15T12:08:19;28.40;99.90
16477;DHT22;8349;50.928;6.376;2023-02-15T12:10:53;28.80;99.90
16477;DHT22;8349;50.928;6.376;2023-02-15T12:13:22;27.80;99.90
16477;DHT22;8349;50.928;6.376;2023-02-15T12:15:52;27.20;99.90
16477;DHT22;8349;50.928;6.376;2023-02-15T12:18:33;28.20;99.90
16477;DHT22;8349;50.928;6.376;2023-02-15T12:21:02;29.30;99.90
16477;DHT22;8349;50.928;6.376;2023-02-15T12:23:30;29.10;99.90
16477;DHT22;8349;50.928;6.376;2023-02-15T12:25:58;29.10;99.90
16477;DHT22;8349;50.928;6.376;2023-02-15T12:28:26;28.90;99.90
16477;DHT22;8349;50.928;6.376;2023-02-15T12:30:54;29.00;99.90
16477;DHT22;8349;50.928;6.376;2023-02-15T12:33:25;29.10;99.90
16477;DHT22;8349;50.928;6.376;2023-02-15T12:35:54;28.70;99.90
16477;DHT22;8349;50.928;6.376;2023-02-15T12:38:25;28.10;99.90
16477;DHT22;8349;50.928;6.376;2023-02-15T12:40:59;28.50;99.90
16477;DHT22;8349;50.928;6.376;2023-02-15T12:43:27;28.90;99.90
16477;DHT22;8349;50.928;6.376;2023-02-15T12:46:03;29.00;99.90
16477;DHT22;8349;50.928;6.376;2023-02-15T12:48:39;28.60;99.90
16477;DHT22;8349;50.928;6.376;2023-02-15T12:51:07;30.60;99.90
16477;DHT22;8349;50.928;6.376;2023-02-15T12:53:35;30.70;99.90
16477;DHT22;8349;50.928;6.376;2023-02-15T12:56:02;29.80;99.90
16477;DHT22;8349;50.928;6.376;2023-02-15T12:58:29;28.90;99.90
16477;DHT22;8349;50.928;6.376;2023-02-15T13:01:09;28.10;99.90
16477;DHT22;8349;50.928;6.376;2023-02-15T13:03:37;28.10;99.90
16477;DHT22;8349;50.928;6.376;2023-02-15T13:06:05;28.00;99.90
16477;DHT22;8349;50.928;6.376;2023-02-15T13:08:33;28.70;99.90
16477;DHT22;8349;50.928;6.376;2023-02-15T13:11:02;29.50;99.90
16477;DHT22;8349;50.928;6.376;2023-02-15T13:13:32;28.50;99.90
16477;DHT22;8349;50.928;6.376;2023-02-15T13:16:00;27.90;99.90
16477;DHT22;8349;50.928;6.376;2023-02-15T13:18:34;28.60;99.90
16477;DHT22;8349;50.928;6.376;2023-02-15T13:21:04;27.10;99.90
16477;DHT22;8349;50.928;6.376;2023-02-15T13:23:32;27.00;99.90
16477;DHT22;8349;50.928;6.376;2023-02-15T13:26:02;27.50;99.90
16477;DHT22;8349;50.928;6.376;2023-02-15T13:28:32;27.70;99.90
16477;DHT22;8349;50.928;6.376;2023-02-15T13:31:02;28.30;99.90
16477;DHT22;8349;50.928;6.376;2023-02-15T13:33:30;27.70;99.90
16477;DHT22;8349;50.928;6.376;2023-02-15T13:36:01;28.60;99.90
16477;DHT22;8349;50.928;6.376;2023-02-15T13:41:14;28.70;99.90
16477;DHT22;8349;50.928;6.376;2023-02-15T13:43:44;28.90;99.90
16477;DHT22;8349;50.928;6.376;2023-02-15T13:46:16;28.40;99.90
16477;DHT22;8349;50.928;6.376;2023-02-15T13:48:46;27.60;99.90
16477;DHT22;8349;50.928;6.376;2023-02-15T13:51:19;27.10;99.90
16477;DHT22;8349;50.928;6.376;2023-02-15T13:53:57;25.80;99.90
16477;DHT22;8349;50.928;6.376;2023-02-15T13:56:29;25.40;99.90
16477;DHT22;8349;50.928;6.376;2023-02-15T13:59:02;25.00;99.90
16477;DHT22;8349;50.928;6.376;2023-02-15T14:01:34;24.70;99.90
16477;DHT22;8349;50.928;6.376;2023-02-15T14:04:09;24.20;99.90
16477;DHT22;8349;50.928;6.376;2023-02-15T14:06:49;23.90;99.90
16477;DHT22;8349;50.928;6.376;2023-02-15T14:09:25;23.50;99.90
16477;DHT22;8349;50.928;6.376;2023-02-15T14:11:54;23.20;99.90
16477;DHT22;8349;50.928;6.376;2023-02-15T14:14:31;22.60;99.90
16477;DHT22;8349;50.928;6.376;2023-02-15T14:17:01;22.60;99.90
16477;DHT22;8349;50.928;6.376;2023-02-15T14:19:31;22.70;99.90
16477;DHT22;8349;50.928;6.376;2023-02-15T14:22:09;22.40;99.90
16477;DHT22;8349;50.928;6.376;2023-02-15T14:24:40;21.80;99.90
16477;DHT22;8349;50.928;6.376;2023-02-15T14:27:11;22.10;99.90
16477;DHT22;8349;50.928;6.376;2023-02-15T14:29:50;22.30;99.90
16477;DHT22;8349;50.928;6.376;2023-02-15T14:32:19;21.80;99.90
16477;DHT22;8349;50.928;6.376;2023-02-15T14:34:48;21.40;99.90
16477;DHT22;8349;50.928;6.376;2023-02-15T14:37:19;20.70;99.90
16477;DHT22;8349;50.928;6.376;2023-02-15T14:39:48;20.30;99.90
16477;DHT22;8349;50.928;6.376;2023-02-15T14:42:37;19.80;99.90
16477;DHT22;8349;50.928;6.376;2023-02-15T14:45:13;19.30;99.90
16477;DHT22;8349;50.928;6.376;2023-02-15T14:47:44;18.90;99.90
16477;DHT22;8349;50.928;6.376;2023-02-15T14:53:16;18.00;99.90
16477;DHT22;8349;50.928;6.376;2023-02-15T14:55:43;17.70;99.90
16477;DHT22;8349;50.928;6.376;2023-02-15T14:58:10;17.40;99.90
16477;DHT22;8349;50.928;6.376;2023-02-15T15:00:38;17.20;99.90
16477;DHT22;8349;50.928;6.376;2023-02-15T15:03:17;17.00;99.90
16477;DHT22;8349;50.928;6.376;2023-02-15T15:05:47;16.80;99.90
16477;DHT22;8349;50.928;6.376;2023-02-15T15:08:22;16.60;99.90
16477;DHT22;8349;50.928;6.376;2023-02-15T15:10:51;16.60;99.90
16477;DHT22;8349;50.928;6.376;2023-02-15T15:13:35;16.50;99.90
16477;DHT22;8349;50.928;6.376;2023-02-15T15:18:48;16.30;99.90
16477;DHT22;8349;50.928;6.376;2023-02-15T15:23:58;15.90;99.90
16477;DHT22;8349;50.928;6.376;2023-02-15T15:26:26;15.70;99.90
16477;DHT22;8349;50.928;6.376;2023-02-15T15:28:54;15.70;99.90
16477;DHT22;8349;50.928;6.376;2023-02-15T15:31:22;15.60;99.90
16477;DHT22;8349;50.928;6.376;2023-02-15T15:42:16;14.90;99.90
16477;DHT22;8349;50.928;6.376;2023-02-15T15:47:34;14.40;99.90
16477;DHT22;8349;50.928;6.376;2023-02-15T15:50:11;14.20;99.90
16477;DHT22;8349;50.928;6.376;2023-02-15T15:52:38;13.90;99.90
16477;DHT22;8349;50.928;6.376;2023-02-15T15:55:13;13.70;99.90
16477;DHT22;8349;50.928;6.376;2023-02-15T15:57:43;13.60;99.90
16477;DHT22;8349;50.928;6.376;2023-02-15T16:00:22;13.40;99.90
16477;DHT22;8349;50.928;6.376;2023-02-15T16:02:51;13.20;99.90
16477;DHT22;8349;50.928;6.376;2023-02-15T16:05:18;13.10;99.90
16477;DHT22;8349;50.928;6.376;2023-02-15T16:07:45;13.00;99.90
16477;DHT22;8349;50.928;6.376;2023-02-15T16:10:19;12.90;99.90
16477;DHT22;8349;50.928;6.376;2023-02-15T16:12:47;12.80;99.90
16477;DHT22;8349;50.928;6.376;2023-02-15T16:15:16;12.70;99.90
16477;DHT22;8349;50.928;6.376;2023-02-15T16:17:44;12.50;99.90
16477;DHT22;8349;50.928;6.376;2023-02-15T16:20:14;12.40;99.90
16477;DHT22;8349;50.928;6.376;2023-02-15T16:22:43;12.20;99.90
16477;DHT22;8349;50.928;6.376;2023-02-15T16:25:17;12.10;99.90
16477;DHT22;8349;50.928;6.376;2023-02-15T16:27:47;12.00;99.90
16477;DHT22;8349;50.928;6.376;2023-02-15T16:33:03;11.80;99.90
16477;DHT22;8349;50.928;6.376;2023-02-15T16:35:31;11.60;99.90
16477;DHT22;8349;50.928;6.376;2023-02-15T16:37:57;11.60;99.90
16477;DHT22;8349;50.928;6.376;2023-02-15T16:40:34;11.50;99.90
16477;DHT22;8349;50.928;6.376;2023-02-15T16:43:04;11.40;99.90
16477;DHT22;8349;50.928;6.376;2023-02-15T16:45:31;11.20;99.90
16477;DHT22;8349;50.928;6.376;2023-02-15T16:47:59;11.10;99.90
16477;DHT22;8349;50.928;6.376;2023-02-15T16:50:28;11.00;99.90
16477;DHT22;8349;50.928;6.376;2023-02-15T16:52:57;10.90;99.90
16477;DHT22;8349;50.928;6.376;2023-02-15T16:55:25;10.80;99.90
16477;DHT22;8349;50.928;6.376;2023-02-15T16:57:53;10.70;99.90
16477;DHT22;8349;50.928;6.376;2023-02-15T17:00:24;10.60;99.90
16477;DHT22;8349;50.928;6.376;2023-02-15T17:02:52;10.50;99.90
16477;DHT22;8349;50.928;6.376;2023-02-15T17:05:19;10.30;99.90
16477;DHT22;8349;50.928;6.376;2023-02-15T17:07:51;10.30;99.90
16477;DHT22;8349;50.928;6.376;2023-02-15T17:10:29;10.30;99.90
16477;DHT22;8349;50.928;6.376;2023-02-15T17:13:00;10.20;99.90
16477;DHT22;8349;50.928;6.376;2023-02-15T17:15:29;10.10;99.90
16477;DHT22;8349;50.928;6.376;2023-02-15T17:17:58;10.00;99.90
16477;DHT22;8349;50.928;6.376;2023-02-15T17:20:26;10.00;99.90
16477;DHT22;8349;50.928;6.376;2023-02-15T17:22:53;10.00;99.90
16477;DHT22;8349;50.928;6.376;2023-02-15T17:25:23;9.80;99.90
16477;DHT22;8349;50.928;6.376;2023-02-15T17:27:51;9.70;99.90
16477;DHT22;8349;50.928;6.376;2023-02-15T17:30:22;9.60;99.90
16477;DHT22;8349;50.928;6.376;2023-02-15T17:32:55;9.60;99.90
16477;DHT22;8349;50.928;6.376;2023-02-15T17:35:23;9.50;99.90
16477;DHT22;8349;50.928;6.376;2023-02-15T17:38:00;9.40;99.90
16477;DHT22;8349;50.928;6.376;2023-02-15T17:40:27;9.40;99.90
16477;DHT22;8349;50.928;6.376;2023-02-15T17:42:55;9.20;99.90
16477;DHT22;8349;50.928;6.376;2023-02-15T17:45:22;9.20;99.90
16477;DHT22;8349;50.928;6.376;2023-02-15T17:47:51;9.10;99.90
16477;DHT22;8349;50.928;6.376;2023-02-15T17:50:20;9.10;99.90
16477;DHT22;8349;50.928;6.376;2023-02-15T17:52:47;9.00;99.90
16477;DHT22;8349;50.928;6.376;2023-02-15T17:55:15;9.00;99.90
16477;DHT22;8349;50.928;6.376;2023-02-15T17:58:04;9.00;99.90
16477;DHT22;8349;50.928;6.376;2023-02-15T18:00:31;9.10;99.90
16477;DHT22;8349;50.928;6.376;2023-02-15T18:03:15;9.10;99.90
16477;DHT22;8349;50.928;6.376;2023-02-15T18:06:01;9.00;99.90
16477;DHT22;8349;50.928;6.376;2023-02-15T18:08:45;8.90;99.90
16477;DHT22;8349;50.928;6.376;2023-02-15T18:11:30;8.80;99.90
16477;DHT22;8349;50.928;6.376;2023-02-15T18:14:00;8.80;99.90
16477;DHT22;8349;50.928;6.376;2023-02-15T18:16:28;8.70;99.90
16477;DHT22;8349;50.928;6.376;2023-02-15T18:18:55;8.60;99.90
16477;DHT22;8349;50.928;6.376;2023-02-15T18:21:24;8.60;99.90
16477;DHT22;8349;50.928;6.376;2023-02-15T18:23:50;8.50;99.90
16477;DHT22;8349;50.928;6.376;2023-02-15T18:26:18;8.50;99.90
16477;DHT22;8349;50.928;6.376;2023-02-15T18:28:45;8.40;99.90
16477;DHT22;8349;50.928;6.376;2023-02-15T18:31:12;8.40;99.90
16477;DHT22;8349;50.928;6.376;2023-02-15T18:33:40;8.20;99.90
16477;DHT22;8349;50.928;6.376;2023-02-15T18:36:08;8.20;99.90
16477;DHT22;8349;50.928;6.376;2023-02-15T18:38:39;8.20;99.90
16477;DHT22;8349;50.928;6.376;2023-02-15T18:41:06;8.10;99.90
16477;DHT22;8349;50.928;6.376;2023-02-15T18:43:33;8.00;99.90
16477;DHT22;8349;50.928;6.376;2023-02-15T18:46:00;7.90;99.90
16477;DHT22;8349;50.928;6.376;2023-02-15T18:48:27;7.80;99.90
16477;DHT22;8349;50.928;6.376;2023-02-15T18:50:53;7.80;99.90
16477;DHT22;8349;50.928;6.376;2023-02-15T18:53:20;7.70;99.90
16477;DHT22;8349;50.928;6.376;2023-02-15T18:55:48;7.60;99.90
16477;DHT22;8349;50.928;6.376;2023-02-15T18:58:16;7.70;99.90
16477;DHT22;8349;50.928;6.376;2023-02-15T19:00:44;7.50;99.90
16477;DHT22;8349;50.928;6.376;2023-02-15T19:03:11;7.40;99.90
16477;DHT22;8349;50.928;6.376;2023-02-15T19:05:39;7.30;99.90
16477;DHT22;8349;50.928;6.376;2023-02-15T19:08:10;7.30;99.90
16477;DHT22;8349;50.928;6.376;2023-02-15T19:10:38;7.20;99.90
16477;DHT22;8349;50.928;6.376;2023-02-15T19:13:09;7.20;99.90
16477;DHT22;8349;50.928;6.376;2023-02-15T19:15:37;7.10;99.90
16477;DHT22;8349;50.928;6.376;2023-02-15T19:18:04;7.00;99.90
16477;DHT22;8349;50.928;6.376;2023-02-15T19:20:31;6.90;99.90
16477;DHT22;8349;50.928;6.376;2023-02-15T19:22:59;6.90;99.90
16477;DHT22;8349;50.928;6.376;2023-02-15T19:25:27;6.90;99.90
16477;DHT22;8349;50.928;6.376;2023-02-15T19:27:54;6.80;99.90
16477;DHT22;8349;50.928;6.376;2023-02-15T19:30:24;6.80;99.90
16477;DHT22;8349;50.928;6.376;2023-02-15T19:32:53;6.80;99.90
16477;DHT22;8349;50.928;6.376;2023-02-15T19:35:21;6.70;99.90
16477;DHT22;8349;50.928;6.376;2023-02-15T19:37:49;6.70;99.90
16477;DHT22;8349;50.928;6.376;2023-02-15T19:40:17;6.60;99.90
16477;DHT22;8349;50.928;6.376;2023-02-15T19:42:44;6.50;99.90
16477;DHT22;8349;50.928;6.376;2023-02-15T19:45:14;6.40;99.90
16477;DHT22;8349;50.928;6.376;2023-02-15T19:47:43;6.40;99.90
16477;DHT22;8349;50.928;6.376;2023-02-15T19:50:14;6.40;99.90
16477;DHT22;8349;50.928;6.376;2023-02-15T19:52:42;6.40;99.90
16477;DHT22;8349;50.928;6.376;2023-02-15T19:55:14;6.30;99.90
16477;DHT22;8349;50.928;6.376;2023-02-15T19:57:41;6.30;99.90
16477;DHT22;8349;50.928;6.376;2023-02-15T20:00:13;6.30;99.90
16477;DHT22;8349;50.928;6.376;2023-02-15T20:02:43;6.30;99.90
16477;DHT22;8349;50.928;6.376;2023-02-15T20:05:10;6.20;99.90
16477;DHT22;8349;50.928;6.376;2023-02-15T20:07:37;6.20;99.90
16477;DHT22;8349;50.928;6.376;2023-02-15T20:10:09;6.20;99.90
16477;DHT22;8349;50.928;6.376;2023-02-15T20:12:39;6.20;99.90
16477;DHT22;8349;50.928;6.376;2023-02-15T20:15:09;6.10;99.90
16477;DHT22;8349;50.928;6.376;2023-02-15T20:17:42;6.10;99.90
16477;DHT22;8349;50.928;6.376;2023-02-15T20:20:11;6.10;99.90
16477;DHT22;8349;50.928;6.376;2023-02-15T20:22:38;6.10;99.90
16477;DHT22;8349;50.928;6.376;2023-02-15T20:25:07;6.00;99.90
16477;DHT22;8349;50.928;6.376;2023-02-15T20:27:35;6.00;99.90
16477;DHT22;8349;50.928;6.376;2023-02-15T20:30:02;6.00;99.90
16477;DHT22;8349;50.928;6.376;2023-02-15T20:32:29;6.00;99.90
16477;DHT22;8349;50.928;6.376;2023-02-15T20:34:56;6.00;99.90
16477;DHT22;8349;50.928;6.376;2023-02-15T20:37:26;6.00;99.90
16477;DHT22;8349;50.928;6.376;2023-02-15T20:39:55;6.00;99.90
16477;DHT22;8349;50.928;6.376;2023-02-15T20:42:22;5.90;99.90
16477;DHT22;8349;50.928;6.376;2023-02-15T20:44:48;5.90;99.90